Time;durP1;ratioP1;P1;durP2;ratioP2;P2;SDS_P1;SDS_P2;PMS_P1;PMS_P2;Temp;Humidity;BMP_temperature;BMP_pressure;BME280_temperature;BME280_humidity;BME280_pressure;Samples;Min_cycle;Max_cycle;Signal;HPM_P1;HPM_P2
2023/03/21 00:01:07;;;;;;;23.92;18.35;;;11.50;99.90;;;11.72;100.00;101465.31;4996486;28;20057;-67
2023/03/21 00:03:36;;;;;;;28.48;19.27;;;11.50;99.90;;;11.60;100.00;101465.25;4996796;28;20073;-67
2023/03/21 00:06:10;;;;;;;24.65;19.20;;;11.40;99.90;;;11.67;100.00;101459.09;4996445;28;20046;-67
2023/03/21 00:08:39;;;;;;;24.02;19.55;;;11.40;99.90;;;11.55;100.00;101445.84;4996321;28;20097;-67
2023/03/21 00:11:09;;;;;;;22.83;19.20;;;11.40;99.90;;;11.68;100.00;101446.75;4996241;28;20042;-67
2023/03/21 00:13:41;;;;;;;24.58;19.38;;;11.40;99.90;;;11.54;100.00;101421.97;4996265;28;20062;-67
2023/03/21 00:16:14;;;;;;;25.52;19.17;;;11.40;99.90;;;11.59;100.00;101439.63;4996376;28;20080;-67
2023/03/21 00:18:54;;;;;;;24.50;19.70;;;11.30;99.90;;;11.48;100.00;101422.84;4996112;28;20480;-67
2023/03/21 00:21:31;;;;;;;32.88;20.80;;;11.40;99.90;;;11.64;100.00;101451.13;4995989;28;20047;-67
2023/03/21 00:24:19;;;;;;;24.52;21.08;;;11.40;99.90;;;11.54;100.00;101445.81;4996007;28;20047;-68
2023/03/21 00:26:48;;;;;;;26.67;21.13;;;11.30;99.90;;;11.55;100.00;101445.84;4996119;28;20498;-67
2023/03/21 00:29:16;;;;;;;22.80;19.75;;;11.30;99.90;;;11.54;100.00;101446.69;4995984;28;20046;-67
2023/03/21 00:31:47;;;;;;;26.23;20.52;;;11.30;99.90;;;11.60;100.00;101438.75;4995896;28;20141;-67
2023/03/21 00:34:15;;;;;;;28.50;21.85;;;11.30;99.90;;;11.65;100.00;101446.72;4994339;28;20042;-67
2023/03/21 00:36:56;;;;;;;24.48;21.02;;;11.30;99.90;;;11.67;100.00;101434.38;4994725;28;20054;-67
2023/03/21 00:39:24;;;;;;;29.50;20.35;;;11.40;99.90;;;11.66;100.00;101433.50;4994560;28;20065;-68
2023/03/21 00:41:53;;;;;;;31.13;20.52;;;11.40;99.90;;;11.52;100.00;101429.91;4994414;28;20149;-67
2023/03/21 00:44:22;;;;;;;27.75;20.35;;;11.30;99.90;;;11.65;100.00;101436.13;4995575;28;20046;-68
2023/03/21 00:46:50;;;;;;;27.33;20.88;;;11.30;99.90;;;11.64;100.00;101435.22;4995785;28;20039;-67
2023/03/21 00:49:36;;;;;;;25.30;20.00;;;11.30;99.90;;;11.58;100.00;101424.63;4995754;28;20050;-68
2023/03/21 00:52:09;;;;;;;26.35;19.70;;;11.30;99.90;;;11.61;100.00;101429.06;4995489;28;20464;-68
2023/03/21 00:54:58;;;;;;;28.02;19.90;;;11.30;99.90;;;11.68;100.00;101429.09;4994056;28;20142;-68
2023/03/21 00:57:28;;;;;;;31.45;21.17;;;11.40;99.90;;;11.70;100.00;101429.97;4995622;28;20046;-67
2023/03/21 01:00:09;;;;;;;25.23;20.15;;;11.50;99.90;;;11.74;100.00;101420.25;4994194;28;20074;-68
2023/03/21 01:02:41;;;;;;;27.33;20.55;;;11.50;99.90;;;11.78;100.00;101411.41;4994090;28;20078;-68
2023/03/21 01:05:12;;;;;;;28.42;20.15;;;11.50;99.90;;;11.73;100.00;101406.09;4993983;28;20485;-67
2023/03/21 01:07:52;;;;;;;27.00;18.92;;;11.50;99.90;;;11.76;100.00;101406.13;4995357;28;20054;-68
2023/03/21 01:10:22;;;;;;;27.13;20.52;;;11.50;99.90;;;11.76;100.00;101405.22;4995377;28;20046;-68
2023/03/21 01:12:50;;;;;;;25.48;20.67;;;11.50;99.90;;;11.79;100.00;101400.81;4995255;28;20050;-68
2023/03/21 01:15:19;;;;;;;27.38;20.35;;;11.50;99.90;;;11.78;100.00;101396.41;4995141;28;20042;-67
2023/03/21 01:17:47;;;;;;;28.63;20.15;;;11.50;99.90;;;11.78;100.00;101390.22;4993972;28;20054;-68
2023/03/21 01:20:16;;;;;;;30.40;21.10;;;11.50;99.90;;;11.76;100.00;101395.53;4995018;28;20420;-67
2023/03/21 01:22:44;;;;;;;29.73;21.08;;;11.50;99.90;;;11.72;100.00;101396.41;4994970;28;20389;-67
2023/03/21 01:25:14;;;;;;;34.03;19.27;;;11.50;99.90;;;11.73;100.00;101376.06;4995042;28;20039;-67
2023/03/21 01:27:50;;;;;;;31.83;20.63;;;11.50;99.90;;;11.92;100.00;101388.44;4993634;28;20050;-67
2023/03/21 01:30:18;;;;;;;29.77;18.50;;;11.60;99.90;;;11.86;100.00;101382.25;4994739;28;20060;-68
2023/03/21 01:32:52;;;;;;;26.73;18.38;;;11.60;99.90;;;11.78;100.00;101375.19;4993734;28;20051;-67
2023/03/21 01:35:21;;;;;;;30.85;18.42;;;11.60;99.90;;;11.78;100.00;101375.19;4993588;28;20049;-67
2023/03/21 01:37:50;;;;;;;26.80;18.23;;;11.50;99.90;;;11.85;100.00;101383.13;4993478;28;20400;-67
2023/03/21 01:40:24;;;;;;;29.27;18.20;;;11.60;99.90;;;11.79;100.00;101384.00;4994534;28;20480;-68
2023/03/21 01:43:00;;;;;;;28.58;18.85;;;11.50;99.90;;;11.72;100.00;101387.56;4993490;28;20388;-67
2023/03/21 01:46:29;;;;;;;25.20;18.38;;;11.50;99.90;;;11.80;100.00;101391.09;4993800;28;20049;-68
2023/03/21 01:49:24;;;;;;;27.60;18.60;;;11.50;99.90;;;11.78;100.00;101387.56;4993386;28;20459;-67
2023/03/21 01:52:06;;;;;;;27.58;18.23;;;11.50;99.90;;;11.75;100.00;101383.13;4993390;28;20046;-67
2023/03/21 01:54:46;;;;;;;27.52;17.63;;;11.50;99.90;;;11.74;100.00;101394.63;4992854;28;20055;-68
2023/03/21 01:57:22;;;;;;;25.60;17.17;;;11.50;99.90;;;11.66;100.00;101383.16;4994353;28;20042;-67
2023/03/21 01:59:55;;;;;;;27.40;17.55;;;11.40;99.90;;;11.66;100.00;101391.09;4993033;28;20057;-67
2023/03/21 02:02:27;;;;;;;23.40;17.13;;;11.40;99.90;;;11.72;100.00;101376.97;4994379;28;20046;-67
2023/03/21 02:05:06;;;;;;;23.27;17.15;;;11.40;99.90;;;11.71;100.00;101372.56;4993001;28;20104;-67
2023/03/21 02:07:40;;;;;;;26.95;17.77;;;11.40;99.90;;;11.68;100.00;101373.44;4992772;28;20054;-67
2023/03/21 02:10:12;;;;;;;22.33;16.48;;;11.40;99.90;;;11.73;100.00;101376.06;4993024;28;20050;-68
2023/03/21 02:12:46;;;;;;;27.83;18.00;;;11.40;99.90;;;11.62;100.00;101368.09;4992950;28;20473;-67
2023/03/21 02:15:15;;;;;;;25.60;17.52;;;11.40;99.90;;;11.78;100.00;101366.34;4992763;28;20050;-68
2023/03/21 02:18:07;;;;;;;22.88;17.50;;;11.50;99.90;;;11.82;100.00;101359.28;4992585;28;20169;-68
2023/03/21 02:21:19;;;;;;;27.08;18.20;;;11.60;99.90;;;11.87;100.00;101358.38;4992796;28;20137;-67
2023/03/21 02:24:46;;;;;;;24.52;17.40;;;11.60;99.90;;;11.89;100.00;101350.41;4992624;28;20055;-67
2023/03/21 02:27:29;;;;;;;26.95;17.48;;;11.60;99.90;;;11.73;100.00;101318.66;4979498;28;20060;-67
2023/03/21 02:30:45;;;;;;;23.05;16.38;;;11.70;99.90;;;11.94;100.00;101346.00;4992533;28;20496;-67
2023/03/21 02:34:01;;;;;;;24.95;15.43;;;11.70;99.90;;;11.87;100.00;101339.81;4992407;28;20069;-67
2023/03/21 02:37:02;;;;;;;21.77;15.10;;;11.70;99.90;;;11.77;100.00;101336.31;4985475;28;20062;-67
2023/03/21 02:39:46;;;;;;;23.92;14.75;;;11.60;99.90;;;11.55;100.00;101308.06;4991293;28;20062;-67
2023/03/21 02:42:20;;;;;;;24.48;15.90;;;11.50;99.90;;;11.70;100.00;101334.56;4992409;28;20480;-67
2023/03/21 02:44:59;;;;;;;24.38;15.00;;;11.50;99.90;;;11.69;100.00;101331.94;4993701;28;20050;-67
2023/03/21 02:47:34;;;;;;;25.83;15.07;;;11.50;99.90;;;11.65;100.00;101328.38;4992486;28;20050;-67
2023/03/21 02:50:12;;;;;;;23.23;13.82;;;11.40;99.90;;;11.62;100.00;101320.41;4992401;28;20046;-67
2023/03/21 02:52:45;;;;;;;23.27;15.05;;;11.30;99.90;;;11.59;100.00;101323.03;4993506;28;20069;-67
2023/03/21 02:55:19;;;;;;;23.20;14.70;;;11.30;99.90;;;11.61;100.00;101323.06;4991948;28;20104;-67
2023/03/21 02:57:58;;;;;;;27.02;15.07;;;11.40;99.90;;;11.60;100.00;101338.06;4991286;28;20492;-67
2023/03/21 03:00:43;;;;;;;23.13;15.43;;;11.40;99.90;;;11.74;100.00;101327.50;4992179;28;20054;-67
2023/03/21 03:03:16;;;;;;;23.98;14.75;;;11.50;99.90;;;11.73;100.00;101331.00;4992120;28;20057;-67
2023/03/21 03:06:03;;;;;;;24.02;15.20;;;11.50;99.90;;;11.83;100.00;101319.50;4991891;28;20054;-67
2023/03/21 03:08:41;;;;;;;27.17;14.77;;;11.60;99.90;;;11.86;100.00;101322.16;4992207;28;20474;-67
2023/03/21 03:11:30;;;;;;;23.05;14.10;;;11.60;99.90;;;11.71;100.00;101293.06;4991899;28;20122;-67
2023/03/21 03:14:19;;;;;;;27.40;14.43;;;11.60;99.90;;;11.87;100.00;101321.28;4992022;28;20108;-67
2023/03/21 03:17:22;;;;;;;27.75;13.93;;;11.70;99.90;;;11.87;100.00;101315.06;4993410;28;20049;-67
2023/03/21 03:20:15;;;;;;;20.15;13.38;;;11.70;99.90;;;11.93;100.00;101321.25;4993064;28;20053;-67
2023/03/21 03:22:56;;;;;;;26.75;14.48;;;11.70;99.90;;;11.67;100.00;101276.25;4991837;28;20057;-68
2023/03/21 03:25:33;;;;;;;23.67;14.10;;;11.70;99.90;;;11.96;100.00;101307.13;4992050;28;20129;-68
2023/03/21 03:28:15;;;;;;;21.17;13.50;;;11.70;99.90;;;11.93;100.00;101310.66;4991785;28;20058;-68
2023/03/21 03:30:45;;;;;;;23.30;13.27;;;11.70;99.90;;;12.04;100.00;101305.34;4991886;28;20057;-68
2023/03/21 03:33:41;;;;;;;20.83;13.63;;;11.80;99.90;;;12.03;100.00;101309.75;4991920;28;20042;-68
2023/03/21 03:36:13;;;;;;;21.27;12.93;;;11.80;99.90;;;12.11;100.00;101315.00;4991872;28;20101;-68
2023/03/21 03:38:58;;;;;;;25.70;14.95;;;11.90;99.90;;;12.08;100.00;101304.44;4991707;28;20572;-68
2023/03/21 03:41:28;;;;;;;24.17;15.55;;;11.90;99.90;;;12.08;100.00;101309.75;4991556;28;20049;-68
2023/03/21 03:44:18;;;;;;;25.02;15.52;;;11.90;99.90;;;12.07;100.00;101313.25;4992960;28;20039;-68
2023/03/21 03:46:59;;;;;;;26.95;16.30;;;11.90;99.90;;;11.98;100.00;101302.69;4991751;28;20057;-68
2023/03/21 03:49:32;;;;;;;26.70;16.27;;;11.90;99.90;;;12.07;100.00;101302.66;4991720;28;20105;-68
2023/03/21 03:52:11;;;;;;;26.05;16.25;;;11.90;99.90;;;12.10;100.00;101308.81;4991510;28;20056;-68
2023/03/21 03:54:49;;;;;;;25.17;17.23;;;11.90;99.90;;;12.09;100.00;101296.47;4991648;28;20492;-68
2023/03/21 03:57:21;;;;;;;20.45;15.48;;;11.90;99.90;;;12.11;100.00;101300.00;4991686;28;20157;-68
2023/03/21 03:59:49;;;;;;;27.33;15.18;;;11.90;99.90;;;12.13;99.95;101297.34;4991655;28;20108;-68
2023/03/21 04:02:19;;;;;;;26.95;16.40;;;11.90;99.90;;;12.12;99.92;101298.19;4992628;28;20138;-68
2023/03/21 04:04:52;;;;;;;23.08;15.23;;;11.90;99.90;;;12.11;99.94;101296.47;4991725;28;20089;-68
2023/03/21 04:07:21;;;;;;;25.98;14.85;;;11.90;99.90;;;12.06;99.72;101291.16;4991634;28;20096;-67
2023/03/21 04:09:52;;;;;;;26.30;15.48;;;11.90;99.90;;;12.08;99.58;101289.38;4995207;28;20145;-68
2023/03/21 04:12:22;;;;;;;26.67;15.13;;;11.90;99.90;;;12.08;99.55;101293.84;4994895;28;20046;-68
2023/03/21 04:15:12;;;;;;;25.13;15.82;;;11.90;99.90;;;12.10;99.23;101284.97;4996051;28;20488;-68
2023/03/21 04:17:46;;;;;;;21.33;14.45;;;11.90;99.90;;;12.15;99.01;101277.00;4995133;28;20439;-68
2023/03/21 04:20:14;;;;;;;22.98;15.30;;;11.90;99.90;;;12.07;98.89;101286.75;4996213;28;20042;-68
2023/03/21 04:23:02;;;;;;;21.77;14.38;;;11.90;99.90;;;12.18;98.82;101275.22;4994798;28;20057;-68
2023/03/21 04:25:33;;;;;;;26.92;15.18;;;12.00;99.90;;;12.16;98.50;101265.47;4994942;28;20491;-68
2023/03/21 04:28:06;;;;;;;25.02;14.43;;;11.90;99.90;;;12.12;98.36;101258.44;4994922;28;20504;-68
2023/03/21 04:30:45;;;;;;;26.33;16.40;;;12.00;99.90;;;12.21;98.04;101263.72;4994883;28;20480;-68
2023/03/21 04:33:31;;;;;;;26.80;15.45;;;12.00;99.90;;;12.23;97.59;101265.44;4994581;28;20297;-68
2023/03/21 04:35:59;;;;;;;25.65;15.13;;;12.00;99.90;;;12.27;97.59;101264.53;4994822;28;20054;-67
2023/03/21 04:38:32;;;;;;;25.70;14.73;;;12.00;99.90;;;12.17;97.29;101264.63;4994716;28;20468;-67
2023/03/21 04:41:04;;;;;;;25.80;15.05;;;12.00;99.90;;;12.17;97.28;101261.97;4994368;28;20042;-68
2023/03/21 04:43:33;;;;;;;25.13;15.65;;;11.90;99.90;;;12.20;97.22;101268.13;4994476;28;20055;-68
2023/03/21 04:46:02;;;;;;;27.38;15.32;;;12.00;99.90;;;12.22;97.19;101262.81;4994387;28;20034;-68
2023/03/21 04:48:31;;;;;;;20.95;15.38;;;11.90;99.90;;;12.23;97.06;101256.63;4994250;28;20042;-68
2023/03/21 04:51:01;;;;;;;26.60;14.50;;;12.00;99.90;;;12.22;96.92;101255.75;4994508;28;20404;-68
2023/03/21 04:53:29;;;;;;;25.08;14.32;;;12.00;99.90;;;12.16;96.48;101245.16;4994217;28;20046;-68
2023/03/21 04:55:57;;;;;;;27.67;14.18;;;12.00;99.90;;;12.14;96.65;101243.38;4993949;28;20523;-68
2023/03/21 04:58:26;;;;;;;23.73;14.30;;;11.90;99.90;;;12.18;96.50;101242.50;4994249;28;20086;-68
2023/03/21 05:00:56;;;;;;;22.63;13.60;;;11.90;99.90;;;12.10;96.30;101249.63;4993985;28;20117;-68
2023/03/21 05:03:24;;;;;;;26.67;14.13;;;11.90;99.90;;;12.13;96.38;101244.28;4995566;28;20045;-68
2023/03/21 05:05:52;;;;;;;23.77;14.50;;;11.90;99.90;;;12.00;96.65;101234.66;4995458;28;20046;-68
2023/03/21 05:08:22;;;;;;;24.35;15.45;;;11.90;99.90;;;12.00;96.69;101232.84;4994053;28;20484;-68
2023/03/21 05:10:51;;;;;;;26.73;15.70;;;11.80;99.90;;;12.09;96.55;101231.94;4994039;28;20173;-68
2023/03/21 05:13:20;;;;;;;22.70;14.68;;;11.90;99.90;;;12.12;96.23;101237.22;4993771;28;20046;-68
2023/03/21 05:15:49;;;;;;;22.05;14.30;;;11.90;99.90;;;12.13;96.45;101239.88;4994056;28;20404;-68
2023/03/21 05:18:23;;;;;;;25.75;15.43;;;11.90;99.90;;;12.16;96.12;101249.56;4993872;28;20046;-68
2023/03/21 05:21:12;;;;;;;28.98;14.25;;;11.90;99.90;;;12.19;96.06;101244.28;4993849;28;20141;-68
2023/03/21 05:23:41;;;;;;;22.40;15.07;;;11.90;99.90;;;12.20;95.85;101246.03;4993568;28;20061;-68
2023/03/21 05:26:10;;;;;;;23.35;14.52;;;12.00;99.90;;;12.15;95.82;101235.47;4993863;28;20065;-68
2023/03/21 05:28:46;;;;;;;23.85;14.38;;;12.00;99.90;;;12.21;95.63;101248.69;4993766;28;20050;-68
2023/03/21 05:31:15;;;;;;;25.45;14.63;;;12.00;99.90;;;12.18;95.46;101231.88;4994966;28;20049;-68
2023/03/21 05:33:48;;;;;;;22.77;14.20;;;12.00;99.90;;;12.15;95.62;101235.47;4993559;28;20563;-68
2023/03/21 05:36:19;;;;;;;27.38;15.07;;;12.00;99.90;;;12.21;95.37;101245.16;4993504;28;20089;-67
2023/03/21 05:38:47;;;;;;;24.50;14.70;;;12.00;99.90;;;12.25;95.15;101245.09;4993505;28;20054;-67
2023/03/21 05:41:17;;;;;;;27.25;14.93;;;12.00;99.90;;;12.19;94.79;101236.31;4993075;28;20034;-68
2023/03/21 05:43:47;;;;;;;20.23;13.43;;;12.00;99.90;;;12.28;94.72;101245.09;4993385;28;20049;-68
2023/03/21 05:46:16;;;;;;;24.05;14.32;;;12.00;99.90;;;12.30;94.80;101250.41;4993316;28;20141;-68
2023/03/21 05:48:46;;;;;;;23.70;14.80;;;12.00;99.90;;;12.26;94.18;101232.72;4993105;28;20419;-68
2023/03/21 05:51:18;;;;;;;24.70;14.63;;;12.10;99.90;;;12.25;94.29;101245.09;4993396;28;20129;-68
2023/03/21 05:53:47;;;;;;;26.15;14.50;;;12.00;99.90;;;12.20;94.36;101240.72;4993281;28;20050;-68
2023/03/21 05:56:16;;;;;;;27.65;14.13;;;12.00;99.90;;;12.20;94.67;101246.91;4992821;28;20069;-68
2023/03/21 05:59:05;;;;;;;27.13;13.63;;;11.90;99.90;;;12.19;94.52;101242.50;4993811;28;20058;-68
2023/03/21 06:01:39;;;;;;;22.75;13.63;;;11.90;99.90;;;12.25;94.73;101244.25;4993124;28;20050;-67
2023/03/21 06:04:14;;;;;;;25.48;14.90;;;11.90;99.90;;;12.15;94.95;101248.72;4993146;28;20146;-68
2023/03/21 06:06:43;;;;;;;;;;;11.90;99.90;;;12.11;95.57;101244.31;4993435;28;20046;-68
2023/03/21 06:09:13;;;;;;;24.55;14.82;;;11.90;99.90;;;12.11;95.85;101238.13;4992911;28;20250;-68
2023/03/21 06:11:50;;;;;;;25.15;14.10;;;11.90;99.90;;;12.14;95.68;101240.75;4992743;28;20054;-68
2023/03/21 06:14:25;;;;;;;27.13;14.63;;;11.80;99.90;;;12.16;96.13;101246.91;4992807;28;20058;-68
2023/03/21 06:17:14;;;;;;;23.80;13.43;;;11.80;99.90;;;12.15;95.90;101240.75;4993602;28;20058;-68
2023/03/21 06:19:50;;;;;;;26.15;13.82;;;11.80;99.90;;;11.94;95.97;101216.09;4992731;28;20058;-68
2023/03/21 06:22:24;;;;;;;28.85;14.95;;;11.80;99.90;;;12.09;96.19;101248.75;4992805;28;20054;-68
2023/03/21 06:24:52;;;;;;;28.35;15.25;;;11.80;99.90;;;12.14;96.31;101248.69;4992685;28;20069;-68
2023/03/21 06:27:21;;;;;;;25.65;14.70;;;11.80;99.90;;;12.14;96.46;101244.28;4992705;28;20488;-68
2023/03/21 06:29:56;;;;;;;23.75;14.38;;;11.80;99.90;;;12.19;96.56;101241.63;4992556;28;20558;-67
2023/03/21 06:32:25;;;;;;;24.80;13.77;;;11.90;99.90;;;12.10;97.12;101249.63;4992188;28;20149;-67
2023/03/21 06:34:59;;;;;;;22.80;13.07;;;11.90;99.90;;;11.94;97.42;101235.56;4992576;28;20112;-68
2023/03/21 06:37:28;;;;;;;20.70;13.47;;;11.80;99.90;;;12.02;98.11;101248.78;4992532;28;20046;-68
2023/03/21 06:39:56;;;;;;;28.50;13.70;;;11.80;99.90;;;12.03;98.27;101247.88;4992385;28;20302;-68
2023/03/21 06:42:25;;;;;;;24.85;14.60;;;11.80;99.90;;;12.02;98.72;101238.16;4992432;28;20448;-67
2023/03/21 06:44:59;;;;;;;27.10;14.32;;;11.80;99.90;;;11.94;98.93;101235.56;4992112;28;20106;-68
2023/03/21 06:47:29;;;;;;;21.98;13.70;;;11.70;99.90;;;11.98;98.96;101229.31;4992159;28;20046;-68
2023/03/21 06:49:58;;;;;;;21.95;14.38;;;11.70;99.90;;;11.99;99.10;101219.59;4992271;28;20096;-67
2023/03/21 06:52:27;;;;;;;24.25;14.13;;;11.70;99.90;;;11.93;99.18;101222.28;4992135;28;20054;-67
2023/03/21 06:54:56;;;;;;;24.48;13.35;;;11.70;99.90;;;11.85;99.04;101210.81;4991982;28;20416;-67
2023/03/21 06:57:24;;;;;;;24.13;14.20;;;11.70;99.90;;;11.70;99.11;101206.47;4991996;28;20054;-67
2023/03/21 06:59:53;;;;;;;19.63;12.80;;;11.60;99.90;;;11.83;99.48;101204.69;4991884;28;20408;-68
2023/03/21 07:02:24;;;;;;;24.48;13.57;;;11.60;99.90;;;11.81;99.70;101199.34;4992131;28;20058;-68
2023/03/21 07:05:09;;;;;;;23.05;13.98;;;11.70;99.90;;;11.79;99.83;101207.31;4992019;28;20096;-68
2023/03/21 07:07:38;;;;;;;21.13;13.60;;;11.60;99.90;;;11.85;100.00;101195.81;4992019;28;20146;-67
2023/03/21 07:10:10;;;;;;;23.02;13.02;;;11.70;99.90;;;11.94;100.00;101194.91;4993209;28;20049;-68
2023/03/21 07:13:07;;;;;;;25.52;13.57;;;11.70;99.90;;;11.97;100.00;101202.81;4989721;28;20050;-68
2023/03/21 07:15:44;;;;;;;25.30;13.02;;;11.80;99.90;;;11.91;100.00;101197.56;4991991;28;20049;-68
2023/03/21 07:18:13;;;;;;;25.42;13.65;;;11.80;99.90;;;11.90;100.00;101201.09;4991844;28;20475;-68
2023/03/21 07:20:49;;;;;;;23.52;13.45;;;11.80;99.90;;;11.88;100.00;101198.47;4991789;28;20046;-68
2023/03/21 07:23:19;;;;;;;21.65;13.30;;;11.80;99.90;;;11.99;100.00;101201.06;4993249;28;20125;-68
2023/03/21 07:25:48;;;;;;;26.40;14.07;;;11.80;99.90;;;11.70;100.00;101207.38;4991752;28;20055;-67
2023/03/21 07:28:18;;;;;;;24.30;13.60;;;11.60;99.90;;;11.68;100.00;101208.25;4991810;28;20475;-68
2023/03/21 07:30:54;;;;;;;26.50;15.60;;;11.60;99.90;;;11.60;100.00;101189.69;4991800;28;20397;-68
2023/03/21 07:33:25;;;;;;;24.77;14.13;;;11.50;99.90;;;11.61;100.00;101202.03;4991701;28;20046;-67
2023/03/21 07:36:00;;;;;;;28.83;14.02;;;11.50;99.90;;;11.55;100.00;101186.19;4991846;28;20527;-68
2023/03/21 07:38:30;;;;;;;23.08;13.95;;;11.40;99.90;;;11.65;100.00;101201.19;4991768;28;20496;-68
2023/03/21 07:41:00;;;;;;;31.23;14.77;;;11.50;99.90;;;11.62;100.00;101190.56;4991760;28;20530;-67
2023/03/21 07:43:32;;;;;;;32.97;13.60;;;11.50;99.90;;;11.62;100.00;101187.03;4993514;28;20054;-68
2023/03/21 07:46:00;;;;;;;24.13;13.70;;;11.50;99.90;;;11.59;100.00;101185.28;4995716;28;20484;-68
2023/03/21 07:48:29;;;;;;;22.33;13.45;;;11.50;99.90;;;11.52;100.00;101186.19;4995626;28;20499;-68
2023/03/21 07:51:01;;;;;;;22.75;13.77;;;11.40;99.90;;;11.27;100.00;101150.06;4996863;28;20046;-68
2023/03/21 07:53:29;;;;;;;21.95;11.82;;;11.40;99.90;;;11.60;100.00;101191.47;4995411;28;20050;-68
2023/03/21 07:55:57;;;;;;;23.58;12.13;;;11.50;99.90;;;11.48;100.00;101194.16;4996231;28;20062;-69
2023/03/21 07:58:27;;;;;;;20.33;12.20;;;11.40;99.90;;;11.53;100.00;101182.69;4996437;28;20403;-69
2023/03/21 08:00:56;;;;;;;21.90;11.70;;;11.40;99.90;;;11.56;100.00;101182.66;4996707;28;20137;-68
2023/03/21 08:03:25;;;;;;;20.20;11.02;;;11.50;99.90;;;11.45;100.00;101149.13;4996375;28;20129;-68
2023/03/21 08:05:53;;;;;;;22.02;11.18;;;11.50;99.90;;;11.56;100.00;101160.56;4996734;28;20050;-68
2023/03/21 08:08:23;;;;;;;17.90;11.18;;;11.40;99.90;;;11.57;100.00;101179.13;4996317;28;20046;-68
2023/03/21 08:10:51;;;;;;;17.73;10.55;;;11.50;99.90;;;11.66;100.00;101165.88;4995268;28;20141;-68
2023/03/21 08:13:19;;;;;;;17.63;11.20;;;11.50;99.90;;;11.62;100.00;101173.78;4996293;28;20121;-68
2023/03/21 08:15:48;;;;;;;22.25;11.00;;;11.50;99.90;;;11.68;100.00;101171.16;4996334;28;20046;-68
2023/03/21 08:18:16;;;;;;;20.77;9.93;;;11.50;99.90;;;11.77;99.85;101174.66;4996026;28;20502;-68
2023/03/21 08:20:44;;;;;;;21.17;9.60;;;11.60;99.90;;;11.85;99.13;101173.72;4996095;28;20074;-68
2023/03/21 08:23:13;;;;;;;17.45;9.85;;;11.70;99.90;;;11.85;98.96;101169.31;4995920;28;20046;-69
2023/03/21 08:25:43;;;;;;;21.45;10.00;;;11.70;99.90;;;11.86;98.33;101159.59;4995912;28;20100;-68
2023/03/21 08:28:11;;;;;;;19.93;10.17;;;11.70;99.90;;;11.84;97.30;101164.91;4996244;28;20066;-68
2023/03/21 08:30:40;;;;;;;18.48;10.20;;;11.70;99.90;;;11.91;97.47;101155.13;4995999;28;20303;-68
2023/03/21 08:33:08;;;;;;;20.05;10.95;;;11.70;99.90;;;11.98;96.97;101159.53;4995923;28;20413;-68
2023/03/21 08:35:36;;;;;;;17.00;11.45;;;11.80;99.90;;;11.98;96.53;101135.69;4995835;28;20046;-68
2023/03/21 08:38:08;;;;;;;21.15;11.63;;;11.90;99.90;;;12.12;96.41;101144.41;4995806;28;20510;-68
2023/03/21 08:40:37;;;;;;;21.38;12.25;;;12.00;99.90;;;12.16;96.70;101149.69;4995813;28;20121;-68
2023/03/21 08:43:07;;;;;;;26.10;12.52;;;12.00;99.90;;;12.22;96.83;101123.13;4995967;28;20054;-68
2023/03/21 08:45:36;;;;;;;23.70;12.70;;;12.10;99.90;;;12.32;96.84;101143.41;4995736;28;20092;-68
2023/03/21 08:48:05;;;;;;;24.85;13.43;;;12.10;99.90;;;12.36;96.60;101157.53;4995581;28;20034;-68
2023/03/21 08:50:34;;;;;;;26.02;13.20;;;12.20;99.90;;;12.32;95.96;101150.47;4995696;28;20066;-68
2023/03/21 08:53:03;;;;;;;23.35;12.75;;;12.20;99.90;;;12.42;95.96;101145.09;4994412;28;20561;-68
2023/03/21 08:55:32;;;;;;;23.83;13.95;;;12.30;99.90;;;12.53;96.15;101142.34;4995390;28;20088;-68
2023/03/21 08:58:00;;;;;;;28.35;12.82;;;12.30;99.90;;;12.57;95.50;101129.06;4995368;28;20503;-68
2023/03/21 09:00:31;;;;;;;25.52;12.80;;;12.40;99.90;;;12.64;96.00;101132.50;4995516;28;20121;-68
2023/03/21 09:03:00;;;;;;;24.52;14.30;;;12.50;99.90;;;12.78;95.58;101120.00;4995360;28;20038;-68
2023/03/21 09:05:28;;;;;;;22.88;12.95;;;12.60;99.90;;;12.85;94.90;101127.03;4995222;28;20543;-68
2023/03/21 09:07:57;;;;;;;29.42;13.25;;;12.60;99.90;;;12.89;94.99;101120.78;4993955;28;20734;-68
2023/03/21 09:10:25;;;;;;;23.35;14.05;;;12.70;99.90;;;13.00;95.01;101134.84;4995471;28;20053;-68
2023/03/21 09:12:55;;;;;;;26.67;13.43;;;12.80;99.90;;;12.90;94.78;101098.66;4993925;28;20136;-68
2023/03/21 09:15:27;;;;;;;25.98;14.77;;;12.90;99.90;;;13.11;94.57;101130.34;4995125;28;20053;-68
2023/03/21 09:18:11;;;;;;;26.27;14.27;;;12.90;99.90;;;13.08;93.94;101119.75;4995314;28;20064;-68
2023/03/21 09:20:41;;;;;;;24.52;13.40;;;12.90;99.90;;;13.19;94.22;101115.19;4995126;28;20047;-68
2023/03/21 09:23:12;;;;;;;25.25;14.27;;;13.00;99.90;;;13.21;94.22;101132.00;4995131;28;20502;-68
2023/03/21 09:25:41;;;;;;;22.58;13.70;;;13.00;99.90;;;13.26;93.67;101118.66;4994813;28;20496;-69
2023/03/21 09:28:09;;;;;;;29.73;14.48;;;13.00;99.90;;;13.34;93.71;101115.00;4994959;28;20077;-68
2023/03/21 09:30:38;;;;;;;21.20;14.23;;;13.10;99.90;;;13.30;93.65;101115.94;4994897;28;20515;-68
2023/03/21 09:33:11;;;;;;;24.23;13.52;;;13.10;99.90;;;13.21;92.57;101116.06;4994858;28;20038;-68
2023/03/21 09:35:41;;;;;;;26.30;14.15;;;13.00;99.90;;;12.77;92.91;101014.75;4994779;28;20057;-68
2023/03/21 09:38:10;;;;;;;30.17;15.03;;;13.00;99.90;;;13.23;93.02;101114.28;4994745;28;20046;-68
2023/03/21 09:40:58;;;;;;;26.15;12.88;;;13.00;99.90;;;13.26;92.63;101114.22;4994860;28;20039;-68
2023/03/21 09:43:41;;;;;;;26.55;14.05;;;13.00;99.90;;;13.29;92.51;101113.31;4993358;28;20042;-68
2023/03/21 09:46:17;;;;;;;24.48;13.80;;;13.10;99.90;;;13.37;92.25;101107.03;4994636;28;20077;-68
2023/03/21 09:48:56;;;;;;;25.65;13.18;;;13.10;99.90;;;13.32;91.76;101118.56;4994469;28;20056;-68
2023/03/21 09:51:30;;;;;;;24.00;13.82;;;13.10;99.90;;;13.43;92.18;101128.19;4993408;28;20104;-68
2023/03/21 09:54:03;;;;;;;25.58;14.00;;;13.20;99.90;;;13.38;91.67;101138.00;4994473;28;20162;-68
2023/03/21 09:56:32;;;;;;;26.05;14.25;;;13.20;99.90;;;13.28;91.14;101111.53;4993104;28;20058;-68
2023/03/21 09:59:02;;;;;;;26.35;13.20;;;13.10;99.90;;;13.39;91.88;101118.47;4994348;28;20042;-69
2023/03/21 10:01:34;;;;;;;24.48;14.27;;;13.10;99.90;;;13.35;90.98;101102.63;4994588;28;20162;-68
2023/03/21 10:04:06;;;;;;;28.48;14.90;;;13.10;99.90;;;13.37;91.16;101109.69;4994409;28;20039;-68
2023/03/21 10:06:40;;;;;;;24.23;14.10;;;13.20;99.90;;;13.32;90.39;101113.25;4993888;28;20069;-68
2023/03/21 10:09:14;;;;;;;24.27;14.05;;;13.10;99.90;;;13.29;90.56;101103.56;4994147;28;20060;-68
2023/03/21 10:11:47;;;;;;;24.77;13.90;;;13.10;99.90;;;13.30;91.03;101115.94;4994109;28;20447;-69
2023/03/21 10:14:21;;;;;;;23.15;14.45;;;13.10;99.90;;;13.24;90.43;101110.69;4994466;28;20042;-68
2023/03/21 10:16:52;;;;;;;24.58;14.43;;;13.10;99.90;;;13.37;90.42;101133.59;4993960;28;20045;-68
2023/03/21 10:19:22;;;;;;;29.33;15.45;;;13.20;99.90;;;13.29;90.75;101126.59;4993935;28;20042;-68
2023/03/21 10:21:52;;;;;;;29.30;15.50;;;13.10;99.90;;;13.34;90.81;101133.63;4993866;28;20042;-68
2023/03/21 10:24:34;;;;;;;24.73;13.90;;;13.10;99.90;;;13.28;91.06;101143.41;4994254;28;20038;-69
2023/03/21 10:27:04;;;;;;;28.52;14.73;;;13.00;99.90;;;13.23;91.01;101143.50;4993821;28;20120;-69